Juntura, Oregon
Current Conditions -  °F | °C
As of 8:01 AM on Saturday 20 Dec 2014 (Local Time) from KBNO Reporting Station
Overcast Overcast  
Wind Chill: 30°   Ceiling: 4700
Heat Index: 34°   Visibility: 10mi
Dew Point: 32°   Wind: 5mph
Humidity: 92%   Direction: 110°ESE
Pressure: 29.94"   Gusts: NA
Location:  43.74°N, 118.08°W
Report Text: KBNO 201501Z AUTO 11004KT 10SM FEW011 SCT033 OVC047 01/00 A2994 RMK AO2 T00110000
Loading
Personal Weather Stations






























Interactive Weather Map New forecast layout! Learn more

10-Day Weather Forecast

Advertisements
Track Severe Weather on mobile